sensor_id;sensor_type;location;lat;lon;timestamp;P1;durP1;ratioP1;P2;durP2;ratioP2
28323;SDS011;15583;54.078;12.106;2023-02-28T00:00:35;5.22;;;3.25;;
28323;SDS011;15583;54.078;12.106;2023-02-28T00:03:02;5.00;;;3.25;;
28323;SDS011;15583;54.078;12.106;2023-02-28T00:05:28;5.00;;;3.67;;
28323;SDS011;15583;54.078;12.106;2023-02-28T00:07:54;7.15;;;3.05;;
28323;SDS011;15583;54.078;12.106;2023-02-28T00:10:21;4.43;;;2.85;;
28323;SDS011;15583;54.078;12.106;2023-02-28T00:12:48;3.92;;;3.15;;
28323;SDS011;15583;54.078;12.106;2023-02-28T00:15:14;3.50;;;2.60;;
28323;SDS011;15583;54.078;12.106;2023-02-28T00:17:40;4.97;;;3.10;;
28323;SDS011;15583;54.078;12.106;2023-02-28T00:20:07;6.03;;;3.22;;
28323;SDS011;15583;54.078;12.106;2023-02-28T00:22:33;9.23;;;3.25;;
28323;SDS011;15583;54.078;12.106;2023-02-28T00:24:59;6.75;;;3.40;;
28323;SDS011;15583;54.078;12.106;2023-02-28T00:27:26;5.38;;;3.58;;
28323;SDS011;15583;54.078;12.106;2023-02-28T00:29:52;6.68;;;2.88;;
28323;SDS011;15583;54.078;12.106;2023-02-28T00:32:19;5.60;;;3.10;;
28323;SDS011;15583;54.078;12.106;2023-02-28T00:34:45;5.68;;;2.88;;
28323;SDS011;15583;54.078;12.106;2023-02-28T00:37:11;9.80;;;2.78;;
28323;SDS011;15583;54.078;12.106;2023-02-28T00:39:37;6.53;;;3.08;;
28323;SDS011;15583;54.078;12.106;2023-02-28T00:42:04;5.35;;;2.75;;
28323;SDS011;15583;54.078;12.106;2023-02-28T00:44:30;6.65;;;3.17;;
28323;SDS011;15583;54.078;12.106;2023-02-28T00:46:56;4.13;;;2.45;;
28323;SDS011;15583;54.078;12.106;2023-02-28T00:49:24;6.60;;;2.83;;
28323;SDS011;15583;54.078;12.106;2023-02-28T00:51:50;4.28;;;2.33;;
28323;SDS011;15583;54.078;12.106;2023-02-28T00:54:17;7.00;;;2.78;;
28323;SDS011;15583;54.078;12.106;2023-02-28T00:56:43;6.25;;;2.50;;
28323;SDS011;15583;54.078;12.106;2023-02-28T00:59:10;4.53;;;2.25;;
28323;SDS011;15583;54.078;12.106;2023-02-28T01:01:36;3.95;;;2.53;;
28323;SDS011;15583;54.078;12.106;2023-02-28T01:04:02;3.88;;;2.22;;
28323;SDS011;15583;54.078;12.106;2023-02-28T01:06:29;5.95;;;2.88;;
28323;SDS011;15583;54.078;12.106;2023-02-28T01:08:56;7.80;;;2.90;;
28323;SDS011;15583;54.078;12.106;2023-02-28T01:11:22;4.53;;;2.40;;
28323;SDS011;15583;54.078;12.106;2023-02-28T01:13:48;7.60;;;2.85;;
28323;SDS011;15583;54.078;12.106;2023-02-28T01:16:14;5.60;;;2.65;;
28323;SDS011;15583;54.078;12.106;2023-02-28T01:18:40;4.53;;;2.65;;
28323;SDS011;15583;54.078;12.106;2023-02-28T01:21:07;4.53;;;3.17;;
28323;SDS011;15583;54.078;12.106;2023-02-28T01:23:33;5.20;;;3.05;;
28323;SDS011;15583;54.078;12.106;2023-02-28T01:26:06;5.72;;;3.08;;
28323;SDS011;15583;54.078;12.106;2023-02-28T01:28:32;7.78;;;3.63;;
28323;SDS011;15583;54.078;12.106;2023-02-28T01:30:58;5.78;;;3.22;;
28323;SDS011;15583;54.078;12.106;2023-02-28T01:33:24;4.90;;;2.85;;
28323;SDS011;15583;54.078;12.106;2023-02-28T01:35:56;6.40;;;3.47;;
28323;SDS011;15583;54.078;12.106;2023-02-28T01:38:22;6.78;;;4.03;;
28323;SDS011;15583;54.078;12.106;2023-02-28T01:40:50;7.57;;;4.05;;
28323;SDS011;15583;54.078;12.106;2023-02-28T01:43:20;5.43;;;3.55;;
28323;SDS011;15583;54.078;12.106;2023-02-28T01:45:46;5.70;;;3.55;;
28323;SDS011;15583;54.078;12.106;2023-02-28T01:48:12;6.18;;;3.65;;
28323;SDS011;15583;54.078;12.106;2023-02-28T01:50:39;5.28;;;3.30;;
28323;SDS011;15583;54.078;12.106;2023-02-28T01:53:07;7.28;;;4.10;;
28323;SDS011;15583;54.078;12.106;2023-02-28T01:55:34;5.97;;;4.10;;
28323;SDS011;15583;54.078;12.106;2023-02-28T01:58:02;10.80;;;5.30;;
28323;SDS011;15583;54.078;12.106;2023-02-28T02:00:30;8.00;;;4.47;;
28323;SDS011;15583;54.078;12.106;2023-02-28T02:03:04;5.25;;;4.18;;
28323;SDS011;15583;54.078;12.106;2023-02-28T02:05:31;8.55;;;4.60;;
28323;SDS011;15583;54.078;12.106;2023-02-28T02:07:58;6.68;;;4.50;;
28323;SDS011;15583;54.078;12.106;2023-02-28T02:10:29;11.50;;;4.55;;
28323;SDS011;15583;54.078;12.106;2023-02-28T02:17:57;5.50;;;4.25;;
28323;SDS011;15583;54.078;12.106;2023-02-28T02:23:07;8.18;;;4.80;;
28323;SDS011;15583;54.078;12.106;2023-02-28T02:28:30;6.93;;;4.43;;
28323;SDS011;15583;54.078;12.106;2023-02-28T02:36:24;6.68;;;4.43;;
28323;SDS011;15583;54.078;12.106;2023-02-28T02:41:48;8.73;;;4.85;;
28323;SDS011;15583;54.078;12.106;2023-02-28T02:44:36;6.85;;;4.82;;
28323;SDS011;15583;54.078;12.106;2023-02-28T02:47:10;8.65;;;4.38;;
28323;SDS011;15583;54.078;12.106;2023-02-28T02:49:38;11.13;;;5.32;;
28323;SDS011;15583;54.078;12.106;2023-02-28T02:52:06;9.65;;;5.32;;
28323;SDS011;15583;54.078;12.106;2023-02-28T02:54:35;9.02;;;5.22;;
28323;SDS011;15583;54.078;12.106;2023-02-28T02:57:06;7.97;;;4.82;;
28323;SDS011;15583;54.078;12.106;2023-02-28T02:59:33;8.48;;;4.80;;
28323;SDS011;15583;54.078;12.106;2023-02-28T03:02:02;6.53;;;4.82;;
28323;SDS011;15583;54.078;12.106;2023-02-28T03:04:30;8.63;;;5.10;;
28323;SDS011;15583;54.078;12.106;2023-02-28T03:06:57;8.73;;;5.40;;
28323;SDS011;15583;54.078;12.106;2023-02-28T03:09:24;8.20;;;5.28;;
28323;SDS011;15583;54.078;12.106;2023-02-28T03:11:51;7.80;;;5.50;;
28323;SDS011;15583;54.078;12.106;2023-02-28T03:14:30;7.05;;;5.50;;
28323;SDS011;15583;54.078;12.106;2023-02-28T03:19:51;6.90;;;5.65;;
28323;SDS011;15583;54.078;12.106;2023-02-28T03:22:29;7.18;;;5.32;;
28323;SDS011;15583;54.078;12.106;2023-02-28T03:27:40;7.93;;;5.13;;
28323;SDS011;15583;54.078;12.106;2023-02-28T03:30:13;7.18;;;4.75;;
28323;SDS011;15583;54.078;12.106;2023-02-28T03:33:27;9.38;;;5.72;;
28323;SDS011;15583;54.078;12.106;2023-02-28T03:35:29;7.05;;;5.05;;
28323;SDS011;15583;54.078;12.106;2023-02-28T03:37:59;10.70;;;5.47;;
28323;SDS011;15583;54.078;12.106;2023-02-28T03:40:27;7.75;;;5.47;;
28323;SDS011;15583;54.078;12.106;2023-02-28T03:43:01;11.13;;;5.88;;
28323;SDS011;15583;54.078;12.106;2023-02-28T03:45:29;9.65;;;5.47;;
28323;SDS011;15583;54.078;12.106;2023-02-28T03:48:03;8.32;;;5.43;;
28323;SDS011;15583;54.078;12.106;2023-02-28T03:50:38;9.60;;;5.85;;
28323;SDS011;15583;54.078;12.106;2023-02-28T03:53:47;10.07;;;6.53;;
28323;SDS011;15583;54.078;12.106;2023-02-28T03:55:55;11.02;;;5.75;;
28323;SDS011;15583;54.078;12.106;2023-02-28T03:58:42;9.43;;;6.68;;
28323;SDS011;15583;54.078;12.106;2023-02-28T04:01:15;12.32;;;6.22;;
28323;SDS011;15583;54.078;12.106;2023-02-28T04:03:42;13.13;;;6.53;;
28323;SDS011;15583;54.078;12.106;2023-02-28T04:06:13;9.18;;;6.18;;
28323;SDS011;15583;54.078;12.106;2023-02-28T04:08:39;10.82;;;6.35;;
28323;SDS011;15583;54.078;12.106;2023-02-28T04:11:11;11.05;;;6.45;;
28323;SDS011;15583;54.078;12.106;2023-02-28T04:13:39;9.13;;;6.13;;
28323;SDS011;15583;54.078;12.106;2023-02-28T04:16:08;9.45;;;6.63;;
28323;SDS011;15583;54.078;12.106;2023-02-28T04:18:39;8.70;;;6.15;;
28323;SDS011;15583;54.078;12.106;2023-02-28T04:21:06;14.25;;;6.30;;
28323;SDS011;15583;54.078;12.106;2023-02-28T04:23:32;9.85;;;6.32;;
28323;SDS011;15583;54.078;12.106;2023-02-28T04:25:58;9.27;;;6.30;;
28323;SDS011;15583;54.078;12.106;2023-02-28T04:28:24;12.40;;;6.68;;
28323;SDS011;15583;54.078;12.106;2023-02-28T04:30:57;9.70;;;6.80;;
28323;SDS011;15583;54.078;12.106;2023-02-28T04:33:23;11.85;;;7.15;;
28323;SDS011;15583;54.078;12.106;2023-02-28T04:35:59;13.95;;;6.45;;
28323;SDS011;15583;54.078;12.106;2023-02-28T04:38:25;11.38;;;6.70;;
28323;SDS011;15583;54.078;12.106;2023-02-28T04:40:51;9.80;;;6.47;;
28323;SDS011;15583;54.078;12.106;2023-02-28T04:43:17;11.50;;;6.32;;
28323;SDS011;15583;54.078;12.106;2023-02-28T04:45:43;10.95;;;7.05;;
28323;SDS011;15583;54.078;12.106;2023-02-28T04:48:09;8.20;;;6.20;;
28323;SDS011;15583;54.078;12.106;2023-02-28T04:50:35;11.77;;;6.75;;
28323;SDS011;15583;54.078;12.106;2023-02-28T04:53:01;9.90;;;6.28;;
28323;SDS011;15583;54.078;12.106;2023-02-28T04:55:27;10.38;;;6.28;;
28323;SDS011;15583;54.078;12.106;2023-02-28T04:57:53;12.05;;;6.70;;
28323;SDS011;15583;54.078;12.106;2023-02-28T05:00:19;13.00;;;6.20;;
28323;SDS011;15583;54.078;12.106;2023-02-28T05:02:45;10.88;;;6.35;;
28323;SDS011;15583;54.078;12.106;2023-02-28T05:05:11;11.25;;;6.65;;
28323;SDS011;15583;54.078;12.106;2023-02-28T05:07:44;9.25;;;6.10;;
28323;SDS011;15583;54.078;12.106;2023-02-28T05:10:10;12.85;;;6.70;;
28323;SDS011;15583;54.078;12.106;2023-02-28T05:12:37;13.30;;;7.00;;
28323;SDS011;15583;54.078;12.106;2023-02-28T05:15:03;10.05;;;5.95;;
28323;SDS011;15583;54.078;12.106;2023-02-28T05:17:30;11.23;;;6.60;;
28323;SDS011;15583;54.078;12.106;2023-02-28T05:19:56;9.88;;;6.20;;
28323;SDS011;15583;54.078;12.106;2023-02-28T05:22:22;9.63;;;6.35;;
28323;SDS011;15583;54.078;12.106;2023-02-28T05:24:48;11.45;;;6.50;;
28323;SDS011;15583;54.078;12.106;2023-02-28T05:27:14;11.52;;;6.18;;
28323;SDS011;15583;54.078;12.106;2023-02-28T05:29:40;11.63;;;6.88;;
28323;SDS011;15583;54.078;12.106;2023-02-28T05:32:09;9.02;;;6.70;;
28323;SDS011;15583;54.078;12.106;2023-02-28T05:34:36;9.20;;;6.55;;
28323;SDS011;15583;54.078;12.106;2023-02-28T05:37:02;10.60;;;6.95;;
28323;SDS011;15583;54.078;12.106;2023-02-28T05:39:28;9.20;;;6.47;;
28323;SDS011;15583;54.078;12.106;2023-02-28T05:41:54;12.60;;;7.10;;
28323;SDS011;15583;54.078;12.106;2023-02-28T05:44:20;9.48;;;6.50;;
28323;SDS011;15583;54.078;12.106;2023-02-28T05:46:46;9.82;;;6.90;;
28323;SDS011;15583;54.078;12.106;2023-02-28T05:49:12;13.27;;;7.43;;
28323;SDS011;15583;54.078;12.106;2023-02-28T05:51:38;14.48;;;7.53;;
28323;SDS011;15583;54.078;12.106;2023-02-28T05:54:05;11.73;;;6.20;;
28323;SDS011;15583;54.078;12.106;2023-02-28T05:56:31;9.52;;;6.95;;
28323;SDS011;15583;54.078;12.106;2023-02-28T05:58:59;13.05;;;7.57;;
28323;SDS011;15583;54.078;12.106;2023-02-28T06:01:38;14.57;;;7.82;;
28323;SDS011;15583;54.078;12.106;2023-02-28T06:04:05;8.90;;;6.60;;
28323;SDS011;15583;54.078;12.106;2023-02-28T06:06:32;12.40;;;7.57;;
28323;SDS011;15583;54.078;12.106;2023-02-28T06:09:02;10.75;;;6.53;;
28323;SDS011;15583;54.078;12.106;2023-02-28T06:11:28;9.90;;;6.55;;
28323;SDS011;15583;54.078;12.106;2023-02-28T06:13:55;12.77;;;8.07;;
28323;SDS011;15583;54.078;12.106;2023-02-28T06:16:21;10.25;;;6.90;;
28323;SDS011;15583;54.078;12.106;2023-02-28T06:18:47;10.75;;;7.28;;
28323;SDS011;15583;54.078;12.106;2023-02-28T06:21:13;12.32;;;7.45;;
28323;SDS011;15583;54.078;12.106;2023-02-28T06:23:39;10.82;;;7.03;;
28323;SDS011;15583;54.078;12.106;2023-02-28T06:26:05;9.63;;;7.18;;
28323;SDS011;15583;54.078;12.106;2023-02-28T06:28:32;11.20;;;7.45;;
28323;SDS011;15583;54.078;12.106;2023-02-28T06:30:58;8.82;;;6.95;;
28323;SDS011;15583;54.078;12.106;2023-02-28T06:33:24;11.93;;;7.18;;
28323;SDS011;15583;54.078;12.106;2023-02-28T06:35:50;12.45;;;7.55;;
28323;SDS011;15583;54.078;12.106;2023-02-28T06:38:16;12.70;;;8.38;;
28323;SDS011;15583;54.078;12.106;2023-02-28T06:40:43;12.60;;;8.25;;
28323;SDS011;15583;54.078;12.106;2023-02-28T06:43:09;11.52;;;8.13;;
28323;SDS011;15583;54.078;12.106;2023-02-28T06:45:40;14.30;;;8.65;;
28323;SDS011;15583;54.078;12.106;2023-02-28T06:48:06;12.68;;;8.20;;
28323;SDS011;15583;54.078;12.106;2023-02-28T06:50:32;12.05;;;8.13;;
28323;SDS011;15583;54.078;12.106;2023-02-28T06:52:58;13.27;;;8.38;;
28323;SDS011;15583;54.078;12.106;2023-02-28T06:55:24;15.27;;;8.65;;
28323;SDS011;15583;54.078;12.106;2023-02-28T06:57:50;12.70;;;8.52;;
28323;SDS011;15583;54.078;12.106;2023-02-28T07:00:16;13.35;;;8.45;;
28323;SDS011;15583;54.078;12.106;2023-02-28T07:02:42;16.08;;;8.93;;
28323;SDS011;15583;54.078;12.106;2023-02-28T07:05:08;12.85;;;8.55;;
28323;SDS011;15583;54.078;12.106;2023-02-28T07:07:34;13.13;;;8.07;;
28323;SDS011;15583;54.078;12.106;2023-02-28T07:10:03;12.15;;;8.63;;
28323;SDS011;15583;54.078;12.106;2023-02-28T07:12:29;13.70;;;8.27;;
28323;SDS011;15583;54.078;12.106;2023-02-28T07:14:54;9.77;;;7.28;;
28323;SDS011;15583;54.078;12.106;2023-02-28T07:17:20;15.20;;;8.38;;
28323;SDS011;15583;54.078;12.106;2023-02-28T07:19:46;13.68;;;8.30;;
28323;SDS011;15583;54.078;12.106;2023-02-28T07:22:12;12.60;;;9.00;;
28323;SDS011;15583;54.078;12.106;2023-02-28T07:24:38;12.82;;;8.77;;
28323;SDS011;15583;54.078;12.106;2023-02-28T07:27:04;16.10;;;9.98;;
28323;SDS011;15583;54.078;12.106;2023-02-28T07:29:31;13.63;;;9.63;;
28323;SDS011;15583;54.078;12.106;2023-02-28T07:31:57;17.02;;;11.23;;
28323;SDS011;15583;54.078;12.106;2023-02-28T07:34:23;16.38;;;11.10;;
28323;SDS011;15583;54.078;12.106;2023-02-28T07:36:52;15.73;;;10.85;;
28323;SDS011;15583;54.078;12.106;2023-02-28T07:39:18;13.60;;;10.55;;
28323;SDS011;15583;54.078;12.106;2023-02-28T07:41:44;12.98;;;9.82;;
28323;SDS011;15583;54.078;12.106;2023-02-28T07:44:10;18.00;;;10.27;;
28323;SDS011;15583;54.078;12.106;2023-02-28T07:46:36;13.43;;;9.52;;
28323;SDS011;15583;54.078;12.106;2023-02-28T07:49:03;14.77;;;9.13;;
28323;SDS011;15583;54.078;12.106;2023-02-28T07:51:29;15.35;;;8.85;;
28323;SDS011;15583;54.078;12.106;2023-02-28T07:53:55;15.57;;;8.73;;
28323;SDS011;15583;54.078;12.106;2023-02-28T07:56:21;12.00;;;8.15;;
28323;SDS011;15583;54.078;12.106;2023-02-28T07:58:48;15.07;;;8.15;;
28323;SDS011;15583;54.078;12.106;2023-02-28T08:01:14;13.45;;;7.97;;
28323;SDS011;15583;54.078;12.106;2023-02-28T08:03:40;12.50;;;7.97;;
28323;SDS011;15583;54.078;12.106;2023-02-28T08:06:07;9.57;;;7.38;;
28323;SDS011;15583;54.078;12.106;2023-02-28T08:08:33;11.68;;;7.45;;
28323;SDS011;15583;54.078;12.106;2023-02-28T08:11:00;12.45;;;7.90;;
28323;SDS011;15583;54.078;12.106;2023-02-28T08:13:27;11.32;;;6.97;;
28323;SDS011;15583;54.078;12.106;2023-02-28T08:15:56;13.48;;;7.70;;
28323;SDS011;15583;54.078;12.106;2023-02-28T08:18:22;11.35;;;7.10;;
28323;SDS011;15583;54.078;12.106;2023-02-28T08:20:48;10.45;;;6.53;;
28323;SDS011;15583;54.078;12.106;2023-02-28T08:23:14;9.77;;;6.85;;
28323;SDS011;15583;54.078;12.106;2023-02-28T08:25:40;10.05;;;6.50;;
28323;SDS011;15583;54.078;12.106;2023-02-28T08:28:06;11.25;;;7.13;;
28323;SDS011;15583;54.078;12.106;2023-02-28T08:30:32;10.73;;;6.53;;
28323;SDS011;15583;54.078;12.106;2023-02-28T08:32:58;9.70;;;6.75;;
28323;SDS011;15583;54.078;12.106;2023-02-28T08:35:24;9.10;;;6.43;;
28323;SDS011;15583;54.078;12.106;2023-02-28T08:37:50;10.82;;;6.30;;
28323;SDS011;15583;54.078;12.106;2023-02-28T08:40:16;7.78;;;5.55;;
28323;SDS011;15583;54.078;12.106;2023-02-28T08:42:45;9.00;;;6.32;;
28323;SDS011;15583;54.078;12.106;2023-02-28T08:45:14;9.63;;;5.90;;
28323;SDS011;15583;54.078;12.106;2023-02-28T08:47:40;9.88;;;5.68;;
28323;SDS011;15583;54.078;12.106;2023-02-28T08:50:06;12.88;;;5.03;;
28323;SDS011;15583;54.078;12.106;2023-02-28T08:52:32;6.45;;;5.20;;
28323;SDS011;15583;54.078;12.106;2023-02-28T08:54:58;7.22;;;5.32;;
28323;SDS011;15583;54.078;12.106;2023-02-28T08:57:24;6.55;;;5.25;;
28323;SDS011;15583;54.078;12.106;2023-02-28T08:59:51;7.90;;;5.28;;
28323;SDS011;15583;54.078;12.106;2023-02-28T09:02:17;10.63;;;5.78;;
28323;SDS011;15583;54.078;12.106;2023-02-28T09:04:43;8.63;;;5.38;;
28323;SDS011;15583;54.078;12.106;2023-02-28T09:07:10;5.97;;;5.07;;
28323;SDS011;15583;54.078;12.106;2023-02-28T09:09:36;6.90;;;5.40;;
28323;SDS011;15583;54.078;12.106;2023-02-28T09:12:02;11.02;;;5.03;;
28323;SDS011;15583;54.078;12.106;2023-02-28T09:14:29;6.95;;;5.22;;
28323;SDS011;15583;54.078;12.106;2023-02-28T09:16:55;6.50;;;4.80;;
28323;SDS011;15583;54.078;12.106;2023-02-28T09:19:21;6.03;;;4.72;;
28323;SDS011;15583;54.078;12.106;2023-02-28T09:21:47;6.57;;;4.07;;
28323;SDS011;15583;54.078;12.106;2023-02-28T09:24:13;6.65;;;4.32;;
28323;SDS011;15583;54.078;12.106;2023-02-28T09:26:40;6.53;;;4.22;;
28323;SDS011;15583;54.078;12.106;2023-02-28T09:29:06;8.70;;;4.22;;
28323;SDS011;15583;54.078;12.106;2023-02-28T09:31:32;4.30;;;3.17;;
28323;SDS011;15583;54.078;12.106;2023-02-28T09:33:58;4.72;;;1.95;;
28323;SDS011;15583;54.078;12.106;2023-02-28T09:36:24;5.03;;;2.00;;
28323;SDS011;15583;54.078;12.106;2023-02-28T09:38:50;5.50;;;1.95;;
28323;SDS011;15583;54.078;12.106;2023-02-28T09:41:27;4.40;;;2.22;;
28323;SDS011;15583;54.078;12.106;2023-02-28T09:44:00;3.90;;;2.35;;
28323;SDS011;15583;54.078;12.106;2023-02-28T09:46:29;3.33;;;2.15;;
28323;SDS011;15583;54.078;12.106;2023-02-28T09:48:56;4.93;;;2.63;;
28323;SDS011;15583;54.078;12.106;2023-02-28T09:54:00;3.33;;;1.50;;
28323;SDS011;15583;54.078;12.106;2023-02-28T09:58:59;4.88;;;1.50;;
28323;SDS011;15583;54.078;12.106;2023-02-28T10:01:31;3.08;;;1.63;;
28323;SDS011;15583;54.078;12.106;2023-02-28T10:04:12;4.13;;;1.80;;
28323;SDS011;15583;54.078;12.106;2023-02-28T10:06:46;2.20;;;1.52;;
28323;SDS011;15583;54.078;12.106;2023-02-28T10:09:17;2.80;;;1.77;;
28323;SDS011;15583;54.078;12.106;2023-02-28T10:11:45;3.03;;;1.70;;
28323;SDS011;15583;54.078;12.106;2023-02-28T10:14:19;2.95;;;1.60;;
28323;SDS011;15583;54.078;12.106;2023-02-28T10:19:33;2.95;;;1.58;;
28323;SDS011;15583;54.078;12.106;2023-02-28T10:22:01;5.28;;;1.70;;
28323;SDS011;15583;54.078;12.106;2023-02-28T10:24:29;4.25;;;1.83;;
28323;SDS011;15583;54.078;12.106;2023-02-28T10:26:58;4.25;;;1.90;;
28323;SDS011;15583;54.078;12.106;2023-02-28T10:29:26;4.80;;;2.13;;
28323;SDS011;15583;54.078;12.106;2023-02-28T10:31:52;3.80;;;1.67;;
28323;SDS011;15583;54.078;12.106;2023-02-28T10:34:18;6.80;;;1.55;;
28323;SDS011;15583;54.078;12.106;2023-02-28T10:36:44;5.07;;;1.60;;
28323;SDS011;15583;54.078;12.106;2023-02-28T10:41:54;3.15;;;1.60;;
28323;SDS011;15583;54.078;12.106;2023-02-28T10:44:21;3.33;;;1.65;;
28323;SDS011;15583;54.078;12.106;2023-02-28T10:46:48;5.60;;;2.45;;
28323;SDS011;15583;54.078;12.106;2023-02-28T10:49:17;4.45;;;2.88;;
28323;SDS011;15583;54.078;12.106;2023-02-28T10:51:45;3.17;;;2.22;;
28323;SDS011;15583;54.078;12.106;2023-02-28T10:54:24;3.75;;;1.38;;
28323;SDS011;15583;54.078;12.106;2023-02-28T10:57:11;5.57;;;2.00;;
28323;SDS011;15583;54.078;12.106;2023-02-28T10:59:40;4.97;;;1.98;;
28323;SDS011;15583;54.078;12.106;2023-02-28T11:05:24;6.07;;;2.28;;
28323;SDS011;15583;54.078;12.106;2023-02-28T11:07:54;3.58;;;1.65;;
28323;SDS011;15583;54.078;12.106;2023-02-28T11:10:21;3.53;;;1.70;;
28323;SDS011;15583;54.078;12.106;2023-02-28T11:12:50;2.30;;;1.20;;
28323;SDS011;15583;54.078;12.106;2023-02-28T11:17:53;2.45;;;1.52;;
28323;SDS011;15583;54.078;12.106;2023-02-28T11:20:23;3.65;;;1.50;;
28323;SDS011;15583;54.078;12.106;2023-02-28T11:22:50;1.88;;;1.25;;
28323;SDS011;15583;54.078;12.106;2023-02-28T11:27:49;2.10;;;1.38;;
28323;SDS011;15583;54.078;12.106;2023-02-28T11:30:23;2.25;;;1.38;;
28323;SDS011;15583;54.078;12.106;2023-02-28T11:32:50;1.77;;;1.35;;
28323;SDS011;15583;54.078;12.106;2023-02-28T11:37:47;5.25;;;1.55;;
28323;SDS011;15583;54.078;12.106;2023-02-28T11:40:14;3.50;;;1.48;;
28323;SDS011;15583;54.078;12.106;2023-02-28T11:42:47;1.75;;;1.25;;
28323;SDS011;15583;54.078;12.106;2023-02-28T11:56:06;2.67;;;1.30;;
28323;SDS011;15583;54.078;12.106;2023-02-28T11:58:44;4.55;;;1.70;;
28323;SDS011;15583;54.078;12.106;2023-02-28T12:01:36;4.05;;;1.52;;
28323;SDS011;15583;54.078;12.106;2023-02-28T12:04:11;2.45;;;1.20;;
28323;SDS011;15583;54.078;12.106;2023-02-28T12:12:21;2.22;;;1.30;;
28323;SDS011;15583;54.078;12.106;2023-02-28T12:19:56;2.75;;;1.67;;
28323;SDS011;15583;54.078;12.106;2023-02-28T12:22:29;2.38;;;1.35;;
28323;SDS011;15583;54.078;12.106;2023-02-28T12:27:41;3.10;;;1.42;;
28323;SDS011;15583;54.078;12.106;2023-02-28T12:32:40;3.22;;;1.80;;
28323;SDS011;15583;54.078;12.106;2023-02-28T12:37:40;2.70;;;1.50;;
28323;SDS011;15583;54.078;12.106;2023-02-28T12:40:19;2.92;;;1.45;;
28323;SDS011;15583;54.078;12.106;2023-02-28T12:42:46;3.10;;;1.52;;
28323;SDS011;15583;54.078;12.106;2023-02-28T12:47:40;3.05;;;1.48;;
28323;SDS011;15583;54.078;12.106;2023-02-28T12:50:09;3.58;;;1.80;;
28323;SDS011;15583;54.078;12.106;2023-02-28T12:55:05;4.05;;;1.80;;
28323;SDS011;15583;54.078;12.106;2023-02-28T13:00:15;3.17;;;1.65;;
28323;SDS011;15583;54.078;12.106;2023-02-28T13:07:49;2.55;;;1.50;;
28323;SDS011;15583;54.078;12.106;2023-02-28T13:10:19;3.25;;;1.55;;
28323;SDS011;15583;54.078;12.106;2023-02-28T13:12:49;2.55;;;1.30;;
28323;SDS011;15583;54.078;12.106;2023-02-28T13:15:23;2.53;;;1.40;;
28323;SDS011;15583;54.078;12.106;2023-02-28T13:17:53;3.63;;;1.10;;
28323;SDS011;15583;54.078;12.106;2023-02-28T13:23:35;1.85;;;1.20;;
28323;SDS011;15583;54.078;12.106;2023-02-28T13:26:02;2.20;;;1.00;;
28323;SDS011;15583;54.078;12.106;2023-02-28T13:28:56;2.85;;;1.20;;
28323;SDS011;15583;54.078;12.106;2023-02-28T13:31:22;2.90;;;1.23;;
28323;SDS011;15583;54.078;12.106;2023-02-28T13:36:30;3.25;;;1.42;;
28323;SDS011;15583;54.078;12.106;2023-02-28T13:39:03;3.33;;;1.33;;
28323;SDS011;15583;54.078;12.106;2023-02-28T13:41:49;3.30;;;1.48;;
28323;SDS011;15583;54.078;12.106;2023-02-28T13:59:55;1.65;;;1.05;;
28323;SDS011;15583;54.078;12.106;2023-02-28T14:03:14;1.20;;;0.90;;
28323;SDS011;15583;54.078;12.106;2023-02-28T14:05:21;2.35;;;0.98;;
28323;SDS011;15583;54.078;12.106;2023-02-28T14:07:56;2.08;;;0.70;;
28323;SDS011;15583;54.078;12.106;2023-02-28T14:10:27;1.50;;;0.75;;
28323;SDS011;15583;54.078;12.106;2023-02-28T14:15:38;2.92;;;0.93;;
28323;SDS011;15583;54.078;12.106;2023-02-28T14:20:47;1.00;;;0.80;;
28323;SDS011;15583;54.078;12.106;2023-02-28T14:23:16;1.63;;;1.10;;
28323;SDS011;15583;54.078;12.106;2023-02-28T14:30:42;1.92;;;1.10;;
28323;SDS011;15583;54.078;12.106;2023-02-28T14:33:26;2.13;;;0.93;;
28323;SDS011;15583;54.078;12.106;2023-02-28T14:38:32;4.53;;;1.17;;
28323;SDS011;15583;54.078;12.106;2023-02-28T14:41:00;2.97;;;0.75;;
28323;SDS011;15583;54.078;12.106;2023-02-28T14:43:28;1.60;;;0.90;;
28323;SDS011;15583;54.078;12.106;2023-02-28T14:46:02;3.42;;;0.80;;
28323;SDS011;15583;54.078;12.106;2023-02-28T14:48:29;2.05;;;1.00;;
28323;SDS011;15583;54.078;12.106;2023-02-28T14:50:58;2.42;;;0.90;;
28323;SDS011;15583;54.078;12.106;2023-02-28T14:53:34;1.10;;;0.70;;
28323;SDS011;15583;54.078;12.106;2023-02-28T14:56:00;3.63;;;1.08;;
28323;SDS011;15583;54.078;12.106;2023-02-28T14:58:27;2.60;;;0.93;;
28323;SDS011;15583;54.078;12.106;2023-02-28T15:00:55;1.58;;;0.85;;
28323;SDS011;15583;54.078;12.106;2023-02-28T15:05:54;1.90;;;0.98;;
28323;SDS011;15583;54.078;12.106;2023-02-28T15:08:22;1.92;;;1.00;;
28323;SDS011;15583;54.078;12.106;2023-02-28T15:10:53;0.95;;;0.82;;
28323;SDS011;15583;54.078;12.106;2023-02-28T15:13:19;2.20;;;0.95;;
28323;SDS011;15583;54.078;12.106;2023-02-28T15:15:51;1.23;;;0.80;;
28323;SDS011;15583;54.078;12.106;2023-02-28T15:18:22;3.30;;;0.90;;
28323;SDS011;15583;54.078;12.106;2023-02-28T15:20:53;1.95;;;0.85;;
28323;SDS011;15583;54.078;12.106;2023-02-28T15:23:19;1.30;;;0.82;;
28323;SDS011;15583;54.078;12.106;2023-02-28T15:25:46;2.55;;;1.00;;
28323;SDS011;15583;54.078;12.106;2023-02-28T15:28:14;1.77;;;1.08;;
28323;SDS011;15583;54.078;12.106;2023-02-28T15:30:49;2.35;;;1.00;;
28323;SDS011;15583;54.078;12.106;2023-02-28T15:35:41;1.77;;;0.90;;
28323;SDS011;15583;54.078;12.106;2023-02-28T15:38:21;2.50;;;1.27;;
28323;SDS011;15583;54.078;12.106;2023-02-28T15:40:52;1.67;;;1.02;;
28323;SDS011;15583;54.078;12.106;2023-02-28T15:43:28;2.67;;;1.00;;
28323;SDS011;15583;54.078;12.106;2023-02-28T15:45:58;1.58;;;0.70;;
28323;SDS011;15583;54.078;12.106;2023-02-28T15:48:29;2.15;;;0.85;;
28323;SDS011;15583;54.078;12.106;2023-02-28T15:51:01;1.67;;;0.80;;
28323;SDS011;15583;54.078;12.106;2023-02-28T15:53:31;3.05;;;0.90;;
28323;SDS011;15583;54.078;12.106;2023-02-28T15:55:59;1.70;;;1.00;;
28323;SDS011;15583;54.078;12.106;2023-02-28T15:58:25;1.67;;;0.90;;
28323;SDS011;15583;54.078;12.106;2023-02-28T16:03:51;2.50;;;0.80;;
28323;SDS011;15583;54.078;12.106;2023-02-28T16:06:23;0.95;;;0.85;;
28323;SDS011;15583;54.078;12.106;2023-02-28T16:08:50;1.20;;;0.90;;
28323;SDS011;15583;54.078;12.106;2023-02-28T16:11:16;1.35;;;0.80;;
28323;SDS011;15583;54.078;12.106;2023-02-28T16:13:43;1.83;;;1.00;;
28323;SDS011;15583;54.078;12.106;2023-02-28T16:16:14;1.63;;;0.77;;
28323;SDS011;15583;54.078;12.106;2023-02-28T16:18:40;5.65;;;0.98;;
28323;SDS011;15583;54.078;12.106;2023-02-28T16:21:06;1.58;;;0.68;;
28323;SDS011;15583;54.078;12.106;2023-02-28T16:23:32;3.88;;;0.88;;
28323;SDS011;15583;54.078;12.106;2023-02-28T16:25:58;3.22;;;0.80;;
28323;SDS011;15583;54.078;12.106;2023-02-28T16:28:29;2.15;;;0.90;;
28323;SDS011;15583;54.078;12.106;2023-02-28T16:30:57;1.65;;;0.70;;
28323;SDS011;15583;54.078;12.106;2023-02-28T16:33:23;1.75;;;0.70;;
28323;SDS011;15583;54.078;12.106;2023-02-28T16:35:49;0.90;;;0.70;;
28323;SDS011;15583;54.078;12.106;2023-02-28T16:38:15;1.27;;;0.70;;
28323;SDS011;15583;54.078;12.106;2023-02-28T16:40:41;1.42;;;0.65;;
28323;SDS011;15583;54.078;12.106;2023-02-28T16:43:09;1.45;;;0.70;;
28323;SDS011;15583;54.078;12.106;2023-02-28T16:45:37;0.98;;;0.50;;
28323;SDS011;15583;54.078;12.106;2023-02-28T16:48:03;3.88;;;0.70;;